Time;durP1;ratioP1;P1;durP2;ratioP2;P2;SDS_P1;SDS_P2;PMS_P1;PMS_P2;Temp;Humidity;BMP_temperature;BMP_pressure;BME280_temperature;BME280_humidity;BME280_pressure;Samples;Min_cycle;Max_cycle;Signal;HPM_P1;HPM_P2
2021/01/05 00:01:41;;;;;;;37.95;22.13;;;180.10;2252.80;;;;;;5114847;28;20050;-64
2021/01/05 00:04:06;;;;;;;31.63;19.17;;;180.00;2252.80;;;;;;5113951;28;20440;-65
2021/01/05 00:06:32;;;;;;;31.08;18.58;;;180.10;2252.80;;;;;;5115918;28;20729;-64
2021/01/05 00:08:58;;;;;;;32.40;20.38;;;180.10;2252.80;;;;;;5116111;28;20067;-64
2021/01/05 00:11:24;;;;;;;31.17;18.30;;;204.80;2252.80;;;;;;5116081;28;20439;-64
2021/01/05 00:13:50;;;;;;;31.23;18.98;;;204.80;2252.80;;;;;;5115680;28;20091;-65
2021/01/05 00:16:16;;;;;;;29.05;18.42;;;204.80;2252.80;;;;;;5116414;28;20084;-65
2021/01/05 00:18:41;;;;;;;31.08;19.13;;;204.80;2252.80;;;;;;5115907;28;20039;-65
2021/01/05 00:21:07;;;;;;;31.65;19.20;;;204.80;2252.80;;;;;;5114550;28;20119;-65
2021/01/05 00:23:33;;;;;;;30.17;19.15;;;204.80;2252.80;;;;;;5112449;28;20073;-65
2021/01/05 00:25:59;;;;;;;32.15;19.77;;;204.80;2252.80;;;;;;5118597;28;20026;-64
2021/01/05 00:28:25;;;;;;;31.05;18.38;;;204.80;2252.80;;;;;;5117884;28;20332;-64
2021/01/05 00:30:50;;;;;;;31.73;20.08;;;204.80;2252.80;;;;;;5118570;28;20320;-64
2021/01/05 00:33:16;;;;;;;31.17;19.15;;;204.80;2252.80;;;;;;5118473;28;20034;-65
2021/01/05 00:35:42;;;;;;;31.10;19.90;;;204.80;2252.80;;;;;;5117882;28;20030;-63
2021/01/05 00:38:10;;;;;;;35.53;20.65;;;180.10;2252.80;;;;;;5118136;28;20035;-64
2021/01/05 00:40:37;;;;;;;32.77;19.93;;;180.10;2252.80;;;;;;5117821;28;20516;-65
2021/01/05 00:43:03;;;;;;;34.15;20.23;;;204.80;2252.80;;;;;;5117437;28;20020;-65
2021/01/05 00:45:38;;;;;;;37.53;19.77;;;180.10;2252.80;;;;;;5118075;28;20031;-65
2021/01/05 00:48:06;;;;;;;34.13;19.52;;;180.10;2252.80;;;;;;5118174;28;20027;-64
2021/01/05 00:50:33;;;;;;;32.33;18.67;;;180.10;2252.80;;;;;;5117653;28;20023;-64
2021/01/05 00:52:58;;;;;;;72.72;38.45;;;204.80;2252.80;;;;;;5118202;28;20459;-65
2021/01/05 00:55:24;;;;;;;29.08;17.58;;;180.10;2252.80;;;;;;5117852;28;20027;-65
2021/01/05 00:57:50;;;;;;;37.00;20.27;;;204.80;2252.80;;;;;;5117273;28;20077;-64
2021/01/05 01:00:22;;;;;;;41.05;22.20;;;204.90;2252.80;;;;;;5117840;28;20452;-65
2021/01/05 01:02:53;;;;;;;38.85;22.13;;;204.90;2252.80;;;;;;5117545;28;20111;-64
2021/01/05 01:05:19;;;;;;;36.72;19.48;;;204.80;2252.80;;;;;;5117687;28;20074;-66
2021/01/05 01:07:45;;;;;;;41.08;23.77;;;205.00;2252.80;;;;;;5117703;28;20084;-66
2021/01/05 01:10:12;;;;;;;29.10;17.70;;;205.10;2252.80;;;;;;5117394;28;20027;-64
2021/01/05 01:12:37;;;;;;;37.80;21.90;;;205.10;2252.80;;;;;;5117942;28;20034;-65
2021/01/05 01:15:05;;;;;;;34.30;18.38;;;205.10;2252.80;;;;;;5118646;28;20333;-64
2021/01/05 01:17:31;;;;;;;33.65;19.25;;;205.10;2252.80;;;;;;5121299;28;20050;-66
2021/01/05 01:19:57;;;;;;;31.13;17.33;;;205.10;2252.80;;;;;;5121895;28;20027;-64
2021/01/05 01:22:24;;;;;;;34.03;18.15;;;205.10;2252.80;;;;;;5121834;28;20110;-64
2021/01/05 01:24:50;;;;;;;32.67;17.73;;;205.20;2252.80;;;;;;5121535;28;20027;-66
2021/01/05 01:27:17;;;;;;;31.90;19.15;;;205.20;2252.80;;;;;;5121872;28;20426;-65
2021/01/05 01:29:42;;;;;;;36.30;19.13;;;205.20;2252.80;;;;;;5121747;28;20100;-66
2021/01/05 01:32:08;;;;;;;30.60;17.13;;;205.20;2252.80;;;;;;5121660;27;20040;-64
2021/01/05 01:34:34;;;;;;;28.27;17.70;;;205.10;2252.80;;;;;;5121866;28;20023;-66
2021/01/05 01:37:00;;;;;;;30.27;17.55;;;205.10;2252.80;;;;;;5121532;28;20031;-65
2021/01/05 01:39:28;;;;;;;34.45;18.00;;;205.10;2252.80;;;;;;5121554;28;20118;-65
2021/01/05 01:41:54;;;;;;;33.30;19.30;;;205.10;2252.80;;;;;;5121487;28;20031;-64
2021/01/05 01:44:24;;;;;;;34.70;20.17;;;205.10;2252.80;;;;;;5121727;28;20028;-64
2021/01/05 01:46:53;;;;;;;29.88;17.63;;;205.10;2252.80;;;;;;5120785;28;20100;-64
2021/01/05 01:49:20;;;;;;;;;;;205.00;2252.80;;;;;;5122061;28;20051;-65
2021/01/05 01:51:46;;;;;;;34.85;19.15;;;205.00;2252.80;;;;;;5120721;28;19903;-65
2021/01/05 01:54:38;;;;;;;31.40;18.67;;;204.80;2252.80;;;;;;5121445;28;20027;-64
2021/01/05 01:57:29;;;;;;;34.38;19.00;;;180.10;2252.80;;;;;;5121457;28;20034;-65
2021/01/05 02:00:29;;;;;;;31.17;18.23;;;180.00;2252.80;;;;;;5121174;28;20019;-64
2021/01/05 02:03:30;;;;;;;29.95;16.48;;;179.90;2252.80;;;;;;5121298;28;20030;-64
2021/01/05 02:06:26;;;;;;;32.85;17.20;;;179.80;2252.80;;;;;;5120559;28;20020;-66
2021/01/05 02:09:25;;;;;;;28.02;15.65;;;179.70;2252.80;;;;;;5118689;28;20036;-64
2021/01/05 02:12:05;;;;;;;26.98;13.00;;;179.60;2252.80;;;;;;5121242;28;20051;-64
2021/01/05 02:14:49;;;;;;;24.20;14.25;;;179.60;2252.80;;;;;;5120960;28;20054;-65
2021/01/05 02:17:33;;;;;;;22.73;14.00;;;179.50;2252.80;;;;;;5120854;28;20085;-64
2021/01/05 02:20:20;;;;;;;21.40;12.77;;;179.50;2252.80;;;;;;5120825;28;20024;-65
2021/01/05 02:23:07;;;;;;;20.75;11.93;;;179.60;2252.80;;;;;;5119242;28;20025;-65
2021/01/05 02:25:55;;;;;;;18.67;10.65;;;179.60;2252.80;;;;;;5120971;28;20023;-64
2021/01/05 02:28:30;;;;;;;15.25;8.95;;;179.60;2252.80;;;;;;5119488;28;20080;-65
2021/01/05 02:31:11;;;;;;;15.48;8.88;;;179.50;2252.80;;;;;;5120604;28;20080;-64
2021/01/05 02:34:02;;;;;;;14.40;8.77;;;179.50;2252.80;;;;;;5120580;28;20118;-65
2021/01/05 02:36:51;;;;;;;16.05;8.40;;;179.50;2252.80;;;;;;5120715;28;20079;-65
2021/01/05 02:39:47;;;;;;;14.25;8.63;;;179.50;2252.80;;;;;;5120738;28;20309;-64
2021/01/05 02:42:31;;;;;;;15.73;9.57;;;179.50;2252.80;;;;;;5120137;28;20098;-64
2021/01/05 02:45:21;;;;;;;19.85;11.23;;;179.50;2252.80;;;;;;5120306;28;20034;-64
2021/01/05 02:48:02;;;;;;;18.52;12.02;;;179.50;2252.80;;;;;;5120133;28;20074;-64
2021/01/05 02:50:55;;;;;;;20.38;12.32;;;179.60;2252.80;;;;;;5120518;28;20023;-64
2021/01/05 02:53:32;;;;;;;20.08;12.93;;;179.70;2252.80;;;;;;5120147;28;20473;-65
2021/01/05 02:56:11;;;;;;;22.08;12.80;;;179.70;2252.80;;;;;;5119585;27;20413;-64
2021/01/05 02:58:56;;;;;;;18.23;11.05;;;179.60;2252.80;;;;;;5120336;28;20027;-65
2021/01/05 03:01:54;;;;;;;19.40;11.82;;;179.50;2252.80;;;;;;5119731;27;20024;-64
2021/01/05 03:04:20;;;;;;;17.40;10.55;;;179.40;2252.80;;;;;;5120307;28;20028;-64
2021/01/05 03:06:50;;;;;;;14.90;9.45;;;179.40;2252.80;;;;;;5119660;27;20027;-64
2021/01/05 03:09:56;;;;;;;13.90;7.90;;;179.30;2252.80;;;;;;5119517;28;20027;-64
2021/01/05 03:13:03;;;;;;;9.63;5.80;;;179.30;2252.80;;;;;;5119129;28;20089;-63
2021/01/05 03:15:48;;;;;;;8.82;5.85;;;179.20;2252.80;;;;;;5119929;28;20321;-63
2021/01/05 03:18:28;;;;;;;11.93;6.10;;;179.20;2252.80;;;;;;5119635;28;20416;-64
2021/01/05 03:21:04;;;;;;;8.98;6.28;;;179.20;2252.80;;;;;;5119358;28;20359;-64
2021/01/05 03:23:33;;;;;;;10.32;6.68;;;179.20;2252.80;;;;;;5119306;28;20020;-63
2021/01/05 03:26:02;;;;;;;11.07;7.37;;;179.20;2252.80;;;;;;5119794;28;20024;-65
2021/01/05 03:28:29;;;;;;;10.57;7.28;;;179.30;2252.80;;;;;;5119143;28;20034;-63
2021/01/05 03:31:02;;;;;;;9.18;5.72;;;179.40;2252.80;;;;;;5119415;28;20027;-64
2021/01/05 03:33:28;;;;;;;12.00;7.22;;;179.30;2252.80;;;;;;5119386;28;20046;-63
2021/01/05 03:35:54;;;;;;;12.15;7.30;;;179.30;2252.80;;;;;;5119588;28;20409;-64
2021/01/05 03:38:20;;;;;;;10.98;6.82;;;179.30;2252.80;;;;;;5118704;28;20024;-64
2021/01/05 03:40:46;;;;;;;9.35;5.85;;;154.50;2252.80;;;;;;5119472;28;20023;-65
2021/01/05 03:43:12;;;;;;;10.73;6.45;;;154.50;2252.80;;;;;;5119088;28;20115;-63
2021/01/05 03:45:37;;;;;;;9.43;6.80;;;154.40;2252.80;;;;;;5118722;28;20035;-63
2021/01/05 03:48:04;;;;;;;10.05;7.35;;;154.40;2252.80;;;;;;5119320;28;20376;-65
2021/01/05 03:50:29;;;;;;;11.43;6.68;;;154.30;2252.80;;;;;;5119258;28;20063;-65
2021/01/05 03:52:55;;;;;;;10.25;6.90;;;154.20;2252.80;;;;;;5118691;28;20059;-65
2021/01/05 03:55:21;;;;;;;9.73;6.88;;;154.20;2252.80;;;;;;5119199;28;20473;-65
2021/01/05 03:57:47;;;;;;;10.63;6.53;;;154.30;2252.80;;;;;;5118811;28;20043;-63
2021/01/05 04:00:27;;;;;;;8.88;5.75;;;154.20;2252.80;;;;;;5119004;28;20042;-63
2021/01/05 04:02:54;;;;;;;6.95;5.45;;;154.20;2252.80;;;;;;5118236;28;20027;-65
2021/01/05 04:05:22;;;;;;;7.50;5.97;;;154.10;2252.80;;;;;;5118239;28;20417;-64
2021/01/05 04:07:48;;;;;;;7.00;5.10;;;154.10;2252.80;;;;;;5118229;28;20027;-64
2021/01/05 04:10:14;;;;;;;8.55;6.00;;;154.00;2252.80;;;;;;5118481;28;20031;-64
2021/01/05 04:12:41;;;;;;;8.88;5.88;;;154.00;2252.80;;;;;;5118584;28;20024;-64
2021/01/05 04:15:10;;;;;;;7.38;4.97;;;153.90;2252.80;;;;;;5118557;28;20035;-65
2021/01/05 04:17:36;;;;;;;7.43;4.72;;;153.90;2252.80;;;;;;5118672;27;20028;-65
2021/01/05 04:20:04;;;;;;;10.23;5.60;;;153.80;2252.80;;;;;;5117859;28;20019;-65
2021/01/05 04:22:29;;;;;;;7.47;5.32;;;153.90;2252.80;;;;;;5118252;28;20024;-65
2021/01/05 04:24:55;;;;;;;8.00;5.45;;;153.90;2252.80;;;;;;5118088;28;20119;-65
2021/01/05 04:27:21;;;;;;;9.45;5.70;;;153.90;2252.80;;;;;;5117979;28;20101;-65
2021/01/05 04:29:47;;;;;;;11.93;6.28;;;153.90;2252.80;;;;;;5118030;28;20028;-65
2021/01/05 04:32:13;;;;;;;8.95;5.95;;;153.90;2252.80;;;;;;5118540;28;20016;-65
2021/01/05 04:34:38;;;;;;;10.85;6.47;;;153.80;2252.80;;;;;;5117658;28;20024;-65
2021/01/05 04:37:04;;;;;;;9.52;6.10;;;153.80;2252.80;;;;;;5118439;28;20393;-66
2021/01/05 04:39:30;;;;;;;10.60;6.80;;;153.80;2252.80;;;;;;5118166;28;20363;-65
2021/01/05 04:42:16;;;;;;;12.57;7.03;;;153.80;2252.80;;;;;;5117073;28;20024;-65
2021/01/05 04:44:55;;;;;;;10.95;6.80;;;153.90;2252.80;;;;;;5117040;28;20016;-65
2021/01/05 04:47:42;;;;;;;12.45;7.13;;;153.90;2252.80;;;;;;5117403;28;20429;-65
2021/01/05 04:50:20;;;;;;;13.65;8.13;;;154.00;2252.80;;;;;;5117371;28;20023;-65
2021/01/05 04:52:55;;;;;;;12.68;7.72;;;154.00;2252.80;;;;;;5117807;28;20080;-65
2021/01/05 04:55:35;;;;;;;11.82;7.47;;;154.10;2252.80;;;;;;5117632;28;20085;-65
2021/01/05 04:58:24;;;;;;;16.13;7.65;;;154.10;2252.80;;;;;;5117788;28;20023;-65
2021/01/05 05:00:51;;;;;;;13.13;8.07;;;154.20;2252.80;;;;;;5117593;28;20020;-65
2021/01/05 05:03:38;;;;;;;15.88;8.85;;;154.20;2252.80;;;;;;5118057;28;20027;-65
2021/01/05 05:06:33;;;;;;;12.30;8.07;;;154.20;2252.80;;;;;;5117812;28;20080;-65
2021/01/05 05:09:26;;;;;;;12.65;8.10;;;154.30;2252.80;;;;;;5116673;28;20043;-66
2021/01/05 05:12:11;;;;;;;11.05;7.55;;;154.40;2252.80;;;;;;5118048;28;20019;-66
2021/01/05 05:15:01;;;;;;;11.98;7.50;;;154.40;2252.80;;;;;;5117748;28;20024;-66
2021/01/05 05:17:49;;;;;;;11.15;7.45;;;154.50;2252.80;;;;;;5117462;28;20028;-65
2021/01/05 05:20:30;;;;;;;9.95;7.05;;;154.50;2252.80;;;;;;5117936;28;20111;-65
2021/01/05 05:22:58;;;;;;;14.27;7.35;;;154.50;2252.80;;;;;;5117352;28;20019;-65
2021/01/05 05:25:41;;;;;;;10.38;7.15;;;179.20;2252.80;;;;;;5117246;28;20032;-66
2021/01/05 05:28:19;;;;;;;12.07;7.72;;;179.20;2252.80;;;;;;5117176;28;20425;-65
2021/01/05 05:30:45;;;;;;;11.23;7.50;;;179.20;2252.80;;;;;;5117011;28;20038;-65
2021/01/05 05:33:22;;;;;;;12.23;8.05;;;179.30;2252.80;;;;;;5117480;28;20019;-66
2021/01/05 05:36:18;;;;;;;16.05;8.32;;;179.30;2252.80;;;;;;5117487;28;20020;-66
2021/01/05 05:39:08;;;;;;;10.90;7.15;;;179.30;2252.80;;;;;;5117504;28;20032;-65
2021/01/05 05:41:46;;;;;;;15.55;8.35;;;179.30;2252.80;;;;;;5116689;28;20440;-66
2021/01/05 05:44:27;;;;;;;12.70;7.63;;;179.30;2252.80;;;;;;5115949;28;20024;-65
2021/01/05 05:47:02;;;;;;;12.75;8.05;;;179.40;2252.80;;;;;;5116141;28;20475;-65
2021/01/05 05:49:37;;;;;;;15.07;10.10;;;179.30;2252.80;;;;;;5116041;28;20436;-65
2021/01/05 05:52:12;;;;;;;14.63;8.00;;;179.40;2252.80;;;;;;5116595;28;20024;-66
2021/01/05 05:54:38;;;;;;;13.50;8.27;;;179.40;2252.80;;;;;;5116622;28;20055;-66
2021/01/05 05:57:07;;;;;;;13.48;8.48;;;179.40;2252.80;;;;;;5117303;28;20028;-66
2021/01/05 05:59:45;;;;;;;12.07;9.35;;;179.40;2252.80;;;;;;5117286;28;20053;-65
2021/01/05 06:02:15;;;;;;;16.38;8.93;;;179.50;2252.80;;;;;;5119782;28;20549;-65
2021/01/05 06:04:40;;;;;;;12.75;8.60;;;179.50;2252.80;;;;;;5120472;28;20028;-65
2021/01/05 06:07:06;;;;;;;12.68;9.70;;;179.50;2252.80;;;;;;5121256;28;20115;-66
2021/01/05 06:09:32;;;;;;;12.98;8.80;;;179.50;2252.80;;;;;;5120968;28;20443;-65
2021/01/05 06:11:58;;;;;;;13.20;8.65;;;179.60;2252.80;;;;;;5120569;28;20020;-65
2021/01/05 06:14:24;;;;;;;10.88;7.90;;;179.60;2252.80;;;;;;5120861;28;20102;-65
2021/01/05 06:16:50;;;;;;;14.60;9.93;;;179.70;2252.80;;;;;;5121156;28;20023;-65
2021/01/05 06:19:15;;;;;;;13.82;9.10;;;179.80;2252.80;;;;;;5120479;28;20028;-66
2021/01/05 06:21:41;;;;;;;13.40;8.50;;;179.90;2252.80;;;;;;5120406;28;20026;-66
2021/01/05 06:24:07;;;;;;;14.15;9.70;;;180.00;2252.80;;;;;;5120734;27;20416;-65
2021/01/05 06:26:33;;;;;;;16.52;9.45;;;180.10;2252.80;;;;;;5120378;28;20023;-65
2021/01/05 06:28:59;;;;;;;15.73;10.57;;;180.00;2252.80;;;;;;5120260;28;20035;-65
2021/01/05 06:31:25;;;;;;;17.05;10.60;;;180.00;2252.80;;;;;;5120574;28;20020;-65
2021/01/05 06:33:51;;;;;;;16.75;10.25;;;180.00;2252.80;;;;;;5120192;28;20076;-66
2021/01/05 06:36:17;;;;;;;86.72;45.63;;;179.90;2252.80;;;;;;5120388;28;20036;-65
2021/01/05 06:38:42;;;;;;;31.88;17.38;;;179.90;2252.80;;;;;;5120370;28;20035;-65
2021/01/05 06:41:08;;;;;;;18.38;13.02;;;179.90;2252.80;;;;;;5120431;28;20031;-66
2021/01/05 06:43:34;;;;;;;20.77;15.57;;;179.90;2252.80;;;;;;5120619;28;20482;-65
2021/01/05 06:46:00;;;;;;;21.75;15.98;;;180.00;2252.80;;;;;;5119930;27;20051;-65
2021/01/05 06:48:26;;;;;;;23.30;14.90;;;179.90;2252.80;;;;;;5120155;28;20027;-66
2021/01/05 06:50:51;;;;;;;20.73;12.50;;;179.90;2252.80;;;;;;5120547;28;20293;-66
2021/01/05 06:53:17;;;;;;;23.48;16.13;;;179.90;2252.80;;;;;;5119872;28;20405;-66
2021/01/05 06:55:43;;;;;;;29.10;17.27;;;179.90;2252.80;;;;;;5120402;28;20047;-66
2021/01/05 06:58:09;;;;;;;49.72;24.45;;;179.90;2252.80;;;;;;5120367;27;20034;-66
2021/01/05 07:00:35;;;;;;;38.03;18.60;;;180.00;2252.80;;;;;;5120032;28;20016;-66
2021/01/05 07:03:01;;;;;;;15.05;9.63;;;180.00;2252.80;;;;;;5119958;28;20428;-65
2021/01/05 07:05:26;;;;;;;11.68;8.30;;;180.00;2252.80;;;;;;5119915;28;20080;-66
2021/01/05 07:07:52;;;;;;;14.90;8.80;;;180.10;2252.80;;;;;;5119524;28;20362;-66
2021/01/05 07:10:20;;;;;;;16.65;11.68;;;205.00;2252.80;;;;;;5119853;28;20027;-65
2021/01/05 07:12:47;;;;;;;17.80;12.80;;;205.10;2252.80;;;;;;5119152;28;20312;-65
2021/01/05 07:15:15;;;;;;;17.50;11.25;;;205.10;2252.80;;;;;;5119445;28;20027;-65
2021/01/05 07:17:41;;;;;;;26.08;15.70;;;204.90;2252.80;;;;;;5119687;28;20122;-66
2021/01/05 07:20:09;;;;;;;25.65;15.75;;;205.10;2252.80;;;;;;5119356;28;20421;-65
2021/01/05 07:22:36;;;;;;;20.48;14.50;;;205.00;2252.80;;;;;;5119595;27;20024;-65
2021/01/05 07:25:03;;;;;;;23.58;15.65;;;205.00;2252.80;;;;;;5119829;28;20027;-63
2021/01/05 07:27:29;;;;;;;33.63;17.95;;;204.90;2252.80;;;;;;5119701;27;20040;-64
2021/01/05 07:29:54;;;;;;;49.47;24.10;;;205.10;2252.80;;;;;;5119489;28;20318;-63
2021/01/05 07:32:21;;;;;;;48.97;24.63;;;205.10;2252.80;;;;;;5119025;28;20429;-63
2021/01/05 07:34:47;;;;;;;59.60;25.80;;;205.20;2252.80;;;;;;5119059;28;20020;-64
2021/01/05 07:37:20;;;;;;;35.25;16.85;;;205.30;2252.80;;;;;;5119600;28;20051;-64
2021/01/05 07:39:46;;;;;;;27.17;14.73;;;205.20;2252.80;;;;;;5119226;28;20024;-63
2021/01/05 07:42:26;;;;;;;18.02;11.18;;;205.30;2252.80;;;;;;5119203;28;20062;-64
2021/01/05 07:44:54;;;;;;;15.18;9.85;;;205.30;2252.80;;;;;;5119468;28;20024;-64
2021/01/05 07:47:32;;;;;;;13.40;7.97;;;205.30;2252.80;;;;;;5118678;28;20063;-65
2021/01/05 07:49:58;;;;;;;10.50;7.00;;;205.40;2252.80;;;;;;5119138;28;20481;-64
2021/01/05 07:52:36;;;;;;;10.88;6.57;;;205.40;2252.80;;;;;;5119006;28;20028;-64
2021/01/05 07:55:24;;;;;;;11.02;7.07;;;205.50;2252.80;;;;;;5119303;28;20023;-64
2021/01/05 07:57:52;;;;;;;11.32;6.10;;;205.50;2252.80;;;;;;5118132;28;20424;-64
2021/01/05 08:00:23;;;;;;;11.00;6.32;;;205.60;2252.80;;;;;;5118589;28;20147;-64
2021/01/05 08:02:49;;;;;;;8.98;6.32;;;205.70;2252.80;;;;;;5118830;28;20024;-64
2021/01/05 08:05:18;;;;;;;16.15;9.20;;;205.60;2252.80;;;;;;5118494;27;20043;-64
2021/01/05 08:07:44;;;;;;;13.15;8.63;;;205.50;2252.80;;;;;;5118925;28;20111;-64
2021/01/05 08:10:20;;;;;;;29.10;15.85;;;205.30;2252.80;;;;;;5118309;28;20028;-64
2021/01/05 08:12:47;;;;;;;18.50;10.77;;;205.20;2252.80;;;;;;5118590;28;20026;-64
2021/01/05 08:15:15;;;;;;;19.13;11.38;;;205.40;2252.80;;;;;;5118250;28;20032;-64
2021/01/05 08:17:41;;;;;;;13.35;8.02;;;205.40;2252.80;;;;;;5118250;28;20023;-64
2021/01/05 08:20:07;;;;;;;21.23;14.63;;;205.60;2252.80;;;;;;5118784;28;20038;-64
2021/01/05 08:22:33;;;;;;;8.68;5.80;;;205.60;2252.80;;;;;;5118683;27;20026;-63
2021/01/05 08:24:59;;;;;;;20.98;13.48;;;205.70;2252.80;;;;;;5117296;28;20110;-63
2021/01/05 08:27:24;;;;;;;17.60;8.25;;;205.70;2252.80;;;;;;5118502;28;20031;-64
2021/01/05 08:29:50;;;;;;;13.38;9.57;;;230.40;2252.80;;;;;;5118340;28;20102;-64
2021/01/05 08:32:19;;;;;;;12.30;9.73;;;230.50;2252.80;;;;;;5117961;28;20023;-63
2021/01/05 08:34:46;;;;;;;11.93;7.72;;;230.50;2252.80;;;;;;5117671;28;20038;-64
2021/01/05 08:37:12;;;;;;;13.60;11.65;;;230.50;2252.80;;;;;;5116952;28;20111;-64
2021/01/05 08:39:38;;;;;;;7.30;5.05;;;230.50;2252.80;;;;;;5118153;28;20023;-64
2021/01/05 08:42:04;;;;;;;7.78;5.20;;;230.50;2252.80;;;;;;5116446;27;20076;-63
2021/01/05 08:44:30;;;;;;;9.15;6.07;;;205.70;2252.80;;;;;;5116859;28;20026;-66
2021/01/05 08:47:01;;;;;;;12.35;5.55;;;230.40;2252.80;;;;;;5116483;28;20081;-64
2021/01/05 08:49:28;;;;;;;8.18;4.78;;;230.40;2252.80;;;;;;5116120;28;20348;-65
2021/01/05 08:51:55;;;;;;;19.90;13.25;;;205.50;2252.80;;;;;;5116459;28;20023;-64
2021/01/05 08:54:21;;;;;;;40.20;24.60;;;205.50;2252.80;;;;;;5113924;28;20405;-65
2021/01/05 08:56:52;;;;;;;23.02;14.77;;;205.50;2252.80;;;;;;5116347;28;20026;-65
2021/01/05 08:59:18;;;;;;;9.32;6.15;;;205.70;2252.80;;;;;;5116168;28;20019;-65
2021/01/05 09:01:44;;;;;;;18.50;12.75;;;205.70;2252.80;;;;;;5116615;28;20042;-64
2021/01/05 09:04:10;;;;;;;15.45;10.63;;;205.70;2252.80;;;;;;5116310;28;20043;-61
2021/01/05 09:06:35;;;;;;;8.85;5.60;;;205.70;2252.80;;;;;;5116224;28;20428;-62
2021/01/05 09:09:01;;;;;;;9.25;5.55;;;205.70;2252.80;;;;;;5116230;28;20031;-62
2021/01/05 09:11:28;;;;;;;11.18;6.90;;;230.50;2252.80;;;;;;5116540;28;20027;-62
2021/01/05 09:13:54;;;;;;;8.85;4.65;;;230.50;2252.80;;;;;;5115863;28;20023;-63
2021/01/05 09:16:24;;;;;;;7.55;4.18;;;230.40;2252.80;;;;;;5113518;28;20024;-61
2021/01/05 09:18:51;;;;;;;8.68;5.03;;;230.40;2252.80;;;;;;5116527;28;20019;-62
2021/01/05 09:21:22;;;;;;;7.28;5.05;;;230.40;2227.20;;;;;;5116161;28;20016;-63
2021/01/05 09:23:52;;;;;;;14.70;9.75;;;205.70;2252.80;;;;;;5116675;28;20089;-63
2021/01/05 09:26:24;;;;;;;10.20;7.05;;;205.70;2252.80;;;;;;5118136;28;20346;-62
2021/01/05 09:28:50;;;;;;;11.05;6.10;;;230.60;2252.80;;;;;;5117033;28;20031;-63
2021/01/05 09:31:17;;;;;;;11.77;5.97;;;230.60;2252.80;;;;;;5117569;28;20030;-62
2021/01/05 09:33:43;;;;;;;10.85;5.28;;;230.60;2252.80;;;;;;5117554;28;20081;-63
2021/01/05 09:36:10;;;;;;;16.50;5.38;;;230.60;2252.80;;;;;;5118342;28;20023;-63
2021/01/05 09:38:38;;;;;;;14.05;5.53;;;230.70;2252.80;;;;;;5121829;28;20106;-62
2021/01/05 09:41:04;;;;;;;12.32;5.88;;;230.90;2252.80;;;;;;5121576;28;20027;-62
2021/01/05 09:43:30;;;;;;;14.32;6.65;;;230.60;2252.80;;;;;;5121791;28;20031;-62
2021/01/05 09:45:56;;;;;;;10.00;7.25;;;230.50;2252.80;;;;;;5121634;28;20051;-62
2021/01/05 09:48:22;;;;;;;15.30;8.25;;;205.70;2252.80;;;;;;5121093;28;20031;-62
2021/01/05 09:50:48;;;;;;;16.48;11.00;;;230.40;2252.80;;;;;;5121382;28;20431;-63
2021/01/05 09:53:15;;;;;;;25.65;14.82;;;230.40;2252.80;;;;;;5121063;28;20027;-63
2021/01/05 09:55:41;;;;;;;9.15;5.55;;;230.40;2252.80;;;;;;5121358;28;20023;-63
2021/01/05 09:58:07;;;;;;;7.90;5.88;;;230.50;2252.80;;;;;;5121543;28;20107;-63
2021/01/05 10:00:34;;;;;;;9.82;6.07;;;230.70;2252.80;;;;;;5121170;28;20315;-63
2021/01/05 10:03:00;;;;;;;31.00;20.75;;;230.70;2252.80;;;;;;5120723;28;20115;-62
2021/01/05 10:05:26;;;;;;;17.75;6.97;;;230.90;2252.80;;;;;;5121132;28;20400;-63
2021/01/05 10:07:52;;;;;;;13.55;7.80;;;231.00;2252.80;;;;;;5120782;28;20028;-62
2021/01/05 10:10:23;;;;;;;15.43;9.40;;;230.80;2252.80;;;;;;5121002;28;20077;-64
2021/01/05 10:12:50;;;;;;;8.13;4.70;;;230.90;2252.80;;;;;;5111433;28;20464;-64
2021/01/05 10:15:21;;;;;;;7.72;4.97;;;230.90;2252.80;;;;;;5110594;28;20101;-63
2021/01/05 10:17:47;;;;;;;10.07;5.13;;;231.00;2252.80;;;;;;5119085;28;20119;-63
2021/01/05 10:20:14;;;;;;;22.40;13.15;;;231.00;2252.80;;;;;;5119719;28;20110;-64
2021/01/05 10:22:40;;;;;;;13.32;9.20;;;231.00;2227.20;;;;;;5120159;28;20404;-64
2021/01/05 10:25:08;;;;;;;9.57;6.78;;;231.30;2252.80;;;;;;5118553;28;20024;-63
2021/01/05 10:27:33;;;;;;;11.80;7.90;;;256.10;2252.80;;;;;;5119975;28;20028;-66
2021/01/05 10:29:59;;;;;;;11.98;6.05;;;256.20;2252.80;;;;;;5120037;28;20032;-63
2021/01/05 10:32:25;;;;;;;9.30;4.75;;;256.30;2252.80;;;;;;5120658;27;20420;-65
2021/01/05 10:34:51;;;;;;;8.40;6.13;;;256.30;2252.80;;;;;;5118405;28;20062;-64
2021/01/05 10:37:17;;;;;;;7.82;5.32;;;256.40;2227.20;;;;;;5119249;27;20064;-62
2021/01/05 10:39:44;;;;;;;7.40;5.28;;;256.20;2150.40;;;;;;5118913;28;20015;-63
2021/01/05 10:42:10;;;;;;;7.68;5.28;;;256.20;2201.60;;;;;;5119366;28;20027;-63
2021/01/05 10:44:36;;;;;;;9.90;7.95;;;256.30;2176.00;;;;;;5119858;28;20026;-64
2021/01/05 10:47:05;;;;;;;14.30;10.60;;;256.60;2227.20;;;;;;5119827;28;20058;-63
2021/01/05 10:49:31;;;;;;;11.40;5.68;;;256.90;2227.20;;;;;;5111855;28;20024;-63
2021/01/05 10:51:58;;;;;;;10.77;6.22;;;256.60;2124.80;;;;;;5107472;28;20440;-63
2021/01/05 10:54:27;;;;;;;8.75;5.55;;;256.50;2124.80;;;;;;5098999;28;20028;-63
2021/01/05 10:56:59;;;;;;;9.73;5.93;;;256.50;2201.60;;;;;;5098693;28;20035;-63
2021/01/05 10:59:27;;;;;;;10.75;5.75;;;256.90;2176.00;;;;;;5099017;28;20081;-63
2021/01/05 11:01:55;;;;;;;9.00;6.20;;;281.60;2176.00;;;;;;5103717;28;20028;-64
2021/01/05 11:04:23;;;;;;;9.73;6.82;;;282.10;2150.40;;;;;;5099313;28;20027;-63
2021/01/05 11:07:00;;;;;;;8.55;6.05;;;282.40;2150.40;;;;;;5099234;28;20398;-65
2021/01/05 11:09:28;;;;;;;9.38;6.38;;;282.50;2073.60;;;;;;5098729;28;20039;-63
2021/01/05 11:12:01;;;;;;;14.77;8.20;;;307.50;2073.60;;;;;;5098858;28;20023;-63
2021/01/05 11:14:27;;;;;;;15.60;9.27;;;282.50;1971.20;;;;;;5099202;28;20107;-63
2021/01/05 11:16:54;;;;;;;16.48;8.95;;;307.20;2048.00;;;;;;5099480;28;20063;-63
2021/01/05 11:19:21;;;;;;;10.32;6.90;;;307.60;2022.40;;;;;;5099088;28;20054;-63
2021/01/05 11:21:54;;;;;;;19.55;9.50;;;307.50;1945.60;;;;;;5099148;28;20414;-62
2021/01/05 11:24:20;;;;;;;11.98;8.50;;;307.60;1971.20;;;;;;5099047;28;20020;-61
2021/01/05 11:26:47;;;;;;;11.32;7.88;;;307.80;1920.00;;;;;;5097714;28;20020;-64
2021/01/05 11:29:13;;;;;;;14.77;9.15;;;333.00;1945.60;;;;;;5100951;28;20027;-63
2021/01/05 11:31:39;;;;;;;15.88;7.10;;;333.70;1792.00;;;;;;5118745;28;20027;-62
2021/01/05 11:34:05;;;;;;;15.27;8.98;;;333.70;1766.40;;;;;;5118924;28;20290;-65
2021/01/05 11:36:31;;;;;;;11.55;7.57;;;358.90;1766.40;;;;;;5119442;28;20418;-64
2021/01/05 11:38:58;;;;;;;12.05;7.88;;;359.10;1638.40;;;;;;5118117;28;20026;-62
2021/01/05 11:41:26;;;;;;;12.65;7.55;;;358.60;1638.40;;;;;;5118639;28;20031;-63
2021/01/05 11:43:52;;;;;;;11.65;7.22;;;359.10;1587.20;;;;;;5118152;28;20020;-66
2021/01/05 11:46:18;;;;;;;15.23;8.60;;;358.60;1612.80;;;;;;5118379;28;20188;-64
2021/01/05 11:48:44;;;;;;;13.55;7.75;;;333.10;1740.80;;;;;;5112036;28;20096;-62
2021/01/05 11:51:28;;;;;;;13.23;7.85;;;358.80;1689.60;;;;;;5118216;28;20028;-64
2021/01/05 11:53:53;;;;;;;17.65;10.55;;;384.70;1612.80;;;;;;5118254;28;20052;-66
2021/01/05 11:56:23;;;;;;;17.48;8.88;;;409.70;1612.80;;;;;;5118617;28;20100;-63
2021/01/05 11:58:49;;;;;;;8.57;6.20;;;409.70;1459.20;;;;;;5118010;27;20323;-64
2021/01/05 12:01:15;;;;;;;16.33;11.68;;;409.70;1484.80;;;;;;5118173;28;20027;-64
2021/01/05 12:03:41;;;;;;;10.40;7.10;;;384.90;1484.80;;;;;;5118730;28;20027;-63
2021/01/05 12:06:18;;;;;;;13.75;8.13;;;409.90;1484.80;;;;;;5118591;28;20306;-63
2021/01/05 12:08:44;;;;;;;17.73;11.32;;;435.30;1433.60;;;;;;5117700;28;20042;-62
2021/01/05 12:11:22;;;;;;;12.40;8.15;;;435.60;1331.20;;;;;;5117866;28;20027;-63
2021/01/05 12:13:48;;;;;;;8.77;6.17;;;436.10;1305.60;;;;;;5118179;28;20038;-63
2021/01/05 12:16:30;;;;;;;7.10;5.03;;;460.90;1305.60;;;;;;5118308;28;20042;-63
2021/01/05 12:18:59;;;;;;;7.43;5.93;;;460.80;1280.00;;;;;;5118604;28;20110;-65
2021/01/05 12:21:39;;;;;;;13.93;9.88;;;460.90;1280.00;;;;;;5117582;28;20027;-63
2021/01/05 12:24:07;;;;;;;19.90;11.02;;;460.80;1254.40;;;;;;5118399;28;20035;-64